GCLP/LPA METAR and TAF weather

Enter ICAO airport designator
Station Type Date Time Source
GCLP METAR 2019/12/13 14:00 UTC NOAA

GCLP 131400Z 01022KT 9999 BKN040 21/11 Q1024 NOSIG


Station Type Date Time Source
GCLP Decoded METAR 2019/12/13 14:00 UTC NOAA

Gran Canaria - Canary Islands, Spain (GCLP) 27-56N 015-23W 47M
Dec 13, 2019 - 09:00 AM EST / 2019.12.13 1400 UTC
Wind: from the N (010 degrees) at 25 MPH (22 KT):0
Visibility: greater than 7 mile(s):0
Sky conditions: mostly cloudy
Temperature: 69 F (21 C)
Dew Point: 51 F (11 C)
Relative Humidity: 52%
Pressure (altimeter): 30.24 in. Hg (1024 hPa)
ob: GCLP 131400Z 01022KT 9999 BKN040 21/11 Q1024 NOSIG
cycle: 14

Station Type Date Time Source
GCLP TAF 2019/12/13 09:36 UTC NOAA

TAF GCLP 130800Z 1309/1409 02020KT 9999 SCT030 TX21/1314Z TN16/1406Z

Example: see airport list